Terminal Aerodrome Forecast
Issued by NWS

Home | Current Version | Previous Version | Graphics & Text | Print | Product List | Glossary On
Versions: 1 2 3 4 5 6 7 8 9 10 11 12 13
167
FTUS43 KBIS 200532
TAFDIK
TAF
KDIK 200532Z 2006/2106 25008KT P6SM BKN070 OVC110
     FM200900 26009KT P6SM SCT100 BKN140
     FM201500 27008KT P6SM SCT200=

USA.gov is the U.S. government's official web portal to all federal, state and local government web resources and services.